KNIP/NIP METAR and TAF weather

Enter ICAO airport designator
Station Type Date Time Source
KNIP METAR 2019/04/22 19:53 UTC NOAA

KNIP 221953Z 09011KT 10SM CLR 27/04 A3013 RMK AO2 SLP198 T02720039


Station Type Date Time Source
KNIP Decoded METAR 2019/04/22 19:53 UTC NOAA

JACKSONVILLE NAVAL AIR STN, FL, United States (KNIP) 30-14N 81-40W 8M
Apr 22, 2019 - 03:53 PM EDT / 2019.04.22 1953 UTC
Wind: from the E (090 degrees) at 13 MPH (11 KT):0
Visibility: 10 mile(s):0
Sky conditions: clear
Temperature: 81.0 F (27.2 C)
Dew Point: 39.0 F (3.9 C)
Relative Humidity: 22%
Pressure (altimeter): 30.13 in. Hg (1020 hPa)
ob: KNIP 221953Z 09011KT 10SM CLR 27/04 A3013 RMK AO2 SLP198 T02720039
cycle: 20

Station Type Date Time Source
KNIP TAF 2019/04/22 15:05 UTC NOAA

TAF KNIP 2215/2315 02006KT 9999 SKC QNH3015INS
FM221800 09008KT 9999 FEW250 QNH3009INS
FM230100 VRB04KT 9999 SKC QNH3011INS T28/2220Z T17/2312Z FN20015

Example: see airport list